createdAt,value
2019-05-19T00:02:27.980Z,4.23
2019-05-19T00:04:56.426Z,4.23
2019-05-19T00:07:24.912Z,4.23
2019-05-19T00:09:54.869Z,3.93
2019-05-19T00:12:23.378Z,4.30
2019-05-19T00:14:51.805Z,4.60
2019-05-19T00:17:20.247Z,4.27
2019-05-19T00:19:48.665Z,3.60
2019-05-19T00:22:17.114Z,4.70
2019-05-19T00:24:45.603Z,4.27
2019-05-19T00:27:14.066Z,4.53
2019-05-19T00:29:42.498Z,4.20
2019-05-19T00:32:10.931Z,4.70
2019-05-19T00:34:39.369Z,4.30
2019-05-19T00:37:07.799Z,4.33
2019-05-19T00:39:36.250Z,3.70
2019-05-19T00:42:04.831Z,4.43
2019-05-19T00:44:33.247Z,4.40
2019-05-19T00:47:01.757Z,4.40
2019-05-19T00:49:41.007Z,4.60
2019-05-19T00:52:00.349Z,5.17
2019-05-19T00:54:28.758Z,6.10
2019-05-19T00:56:58.274Z,5.60
2019-05-19T00:59:27.559Z,6.37
2019-05-19T01:01:56.179Z,6.20
2019-05-19T01:04:24.670Z,5.60
2019-05-19T01:06:53.111Z,7.10
2019-05-19T01:09:21.535Z,7.03
2019-05-19T01:11:49.969Z,6.23
2019-05-19T01:14:18.388Z,5.80
2019-05-19T01:16:46.834Z,6.70
2019-05-19T01:19:16.800Z,5.87
2019-05-19T01:21:45.758Z,5.80
2019-05-19T01:24:14.196Z,5.67
2019-05-19T01:26:42.627Z,6.47
2019-05-19T01:29:11.067Z,6.50
2019-05-19T01:31:39.483Z,6.90
2019-05-19T01:34:09.691Z,6.53
2019-05-19T01:36:38.107Z,6.93
2019-05-19T01:39:06.750Z,7.30
2019-05-19T01:41:35.195Z,7.03
2019-05-19T01:44:03.867Z,6.87
2019-05-19T01:46:32.285Z,7.10
2019-05-19T01:49:00.731Z,7.47
2019-05-19T01:51:29.147Z,7.30
2019-05-19T01:53:57.586Z,8.37
2019-05-19T01:56:26.081Z,7.53
2019-05-19T01:58:54.522Z,7.03
2019-05-19T02:01:22.942Z,7.90
2019-05-19T02:03:51.535Z,7.37
2019-05-19T02:06:19.954Z,7.30
2019-05-19T02:08:48.395Z,7.20
2019-05-19T02:11:16.839Z,6.90
2019-05-19T02:13:45.343Z,7.13
2019-05-19T02:16:13.828Z,6.10
2019-05-19T02:18:42.253Z,7.73
2019-05-19T02:21:10.747Z,7.23
2019-05-19T02:23:39.197Z,6.95
2019-05-19T02:26:07.695Z,6.67
2019-05-19T02:28:36.146Z,6.83
2019-05-19T02:31:04.578Z,7.43
2019-05-19T02:33:35.666Z,6.90
2019-05-19T02:36:03.184Z,7.73
2019-05-19T02:38:31.615Z,7.35
2019-05-19T02:41:01.093Z,6.93
2019-05-19T02:43:29.955Z,7.60
2019-05-19T02:46:00.569Z,7.90
2019-05-19T02:48:29.844Z,6.10
2019-05-19T02:51:01.014Z,6.50
2019-05-19T02:53:30.761Z,6.37
2019-05-19T02:56:00.738Z,6.83
2019-05-19T02:58:30.114Z,6.75
2019-05-19T03:00:58.614Z,6.30
2019-05-19T03:03:27.047Z,6.53
2019-05-19T03:05:55.612Z,6.97
2019-05-19T03:08:24.039Z,7.05
2019-05-19T03:10:52.496Z,6.17
2019-05-19T03:13:20.921Z,7.47
2019-05-19T03:15:49.506Z,7.25
2019-05-19T03:18:17.929Z,7.15
2019-05-19T03:20:46.380Z,7.25
2019-05-19T03:23:14.800Z,6.80
2019-05-19T03:25:44.177Z,7.35
2019-05-19T03:28:12.967Z,6.80
2019-05-19T03:30:43.065Z,6.40
2019-05-19T03:33:13.296Z,5.28
2019-05-19T03:35:41.740Z,5.60
2019-05-19T03:38:10.196Z,5.78
2019-05-19T03:40:38.641Z,6.70
2019-05-19T03:43:07.067Z,6.00
2019-05-19T03:45:35.499Z,6.90
2019-05-19T03:48:04.074Z,6.08
2019-05-19T03:50:32.491Z,6.05
2019-05-19T03:53:00.932Z,5.90
2019-05-19T03:55:29.344Z,6.15
2019-05-19T03:57:57.786Z,6.00
2019-05-19T04:00:26.320Z,6.42
2019-05-19T04:02:54.760Z,6.85
2019-05-19T04:05:23.178Z,6.60
2019-05-19T04:07:51.635Z,6.53
2019-05-19T04:10:20.303Z,6.83
2019-05-19T04:12:48.748Z,6.80
2019-05-19T04:15:17.407Z,6.60
2019-05-19T04:17:45.836Z,6.35
2019-05-19T04:20:14.541Z,6.12
2019-05-19T04:22:43.003Z,7.35
2019-05-19T04:25:11.601Z,7.00
2019-05-19T04:27:40.052Z,6.87
2019-05-19T04:30:09.829Z,7.20
2019-05-19T04:32:38.256Z,7.17
2019-05-19T04:35:07.148Z,7.00
2019-05-19T04:37:36.330Z,7.20
2019-05-19T04:40:06.798Z,7.50
2019-05-19T04:42:35.238Z,7.20
2019-05-19T04:45:03.857Z,8.45
2019-05-19T04:47:32.264Z,8.20
2019-05-19T04:50:00.714Z,8.30
2019-05-19T04:52:29.318Z,7.85
2019-05-19T04:54:57.772Z,7.83
2019-05-19T04:57:26.196Z,8.53
2019-05-19T04:59:54.640Z,8.58
2019-05-19T05:02:23.077Z,8.25
2019-05-19T05:04:51.523Z,9.08
2019-05-19T05:07:21.498Z,7.83
2019-05-19T05:09:49.946Z,8.23
2019-05-19T05:12:19.912Z,8.23
2019-05-19T05:14:48.371Z,8.18
2019-05-19T05:17:16.797Z,8.57
2019-05-19T05:19:47.956Z,9.33
2019-05-19T05:22:22.212Z,8.95
2019-05-19T05:24:46.536Z,8.80
2019-05-19T05:27:14.968Z,9.33
2019-05-19T05:29:43.398Z,9.53
2019-05-19T05:32:11.835Z,8.90
2019-05-19T05:34:40.267Z,8.33
2019-05-19T05:37:08.720Z,9.97
2019-05-19T05:39:37.150Z,10.63
2019-05-19T05:42:05.612Z,11.10
2019-05-19T05:44:34.121Z,10.60
2019-05-19T05:47:02.571Z,11.83
2019-05-19T05:49:30.998Z,10.37
2019-05-19T05:51:59.443Z,9.23
2019-05-19T05:54:27.897Z,9.37
2019-05-19T05:56:58.874Z,8.67
2019-05-19T05:59:28.038Z,7.67
2019-05-19T06:01:56.491Z,8.80
2019-05-19T06:04:24.931Z,7.73
2019-05-19T06:06:53.500Z,8.37
2019-05-19T06:09:21.928Z,7.30
2019-05-19T06:11:50.399Z,7.17
2019-05-19T06:14:18.825Z,7.47
2019-05-19T06:16:47.343Z,6.40
2019-05-19T06:19:15.828Z,6.63
2019-05-19T06:21:44.333Z,6.87
2019-05-19T06:24:12.755Z,7.10
2019-05-19T06:26:41.207Z,6.13
2019-05-19T06:29:09.653Z,6.80
2019-05-19T06:31:38.106Z,6.93
2019-05-19T06:34:06.594Z,6.70
2019-05-19T06:36:35.020Z,7.17
2019-05-19T06:39:06.013Z,7.60
2019-05-19T06:41:34.605Z,7.70
2019-05-19T06:44:03.603Z,7.90
2019-05-19T06:46:32.660Z,8.23
2019-05-19T06:49:02.651Z,8.40
2019-05-19T06:51:31.083Z,7.40
2019-05-19T06:53:59.538Z,7.10
2019-05-19T06:56:28.034Z,7.80
2019-05-19T06:58:56.474Z,8.27
2019-05-19T07:01:24.895Z,8.60
2019-05-19T07:03:53.518Z,9.07
2019-05-19T07:06:21.946Z,9.07
2019-05-19T07:08:50.395Z,9.27
2019-05-19T07:11:18.893Z,8.60
2019-05-19T07:13:47.411Z,8.37
2019-05-19T07:16:16.879Z,8.80
2019-05-19T07:18:45.402Z,9.03
2019-05-19T07:21:13.878Z,9.20
2019-05-19T07:23:42.333Z,8.47
2019-05-19T07:26:10.751Z,8.40
2019-05-19T07:28:39.203Z,8.33
2019-05-19T07:31:07.638Z,8.13
2019-05-19T07:33:36.075Z,8.37
2019-05-19T07:36:04.583Z,7.73
2019-05-19T07:38:33.101Z,8.60
2019-05-19T07:41:01.542Z,8.63
2019-05-19T07:43:30.073Z,8.97
2019-05-19T07:46:00.128Z,8.90
2019-05-19T07:48:28.588Z,7.57
2019-05-19T07:50:57.037Z,7.87
2019-05-19T07:53:25.590Z,8.20
2019-05-19T07:55:54.054Z,7.60
2019-05-19T07:58:22.465Z,7.07
2019-05-19T08:00:51.095Z,7.43
2019-05-19T08:03:19.584Z,7.27
2019-05-19T08:05:48.119Z,9.37
2019-05-19T08:08:18.192Z,7.53
2019-05-19T08:10:46.645Z,7.90
2019-05-19T08:13:15.077Z,7.50
2019-05-19T08:15:43.525Z,7.30
2019-05-19T08:18:11.966Z,8.03
2019-05-19T08:20:40.408Z,8.00
2019-05-19T08:23:08.882Z,8.53
2019-05-19T08:25:37.354Z,7.07
2019-05-19T08:28:08.830Z,7.37
2019-05-19T08:30:36.221Z,8.57
2019-05-19T08:33:04.732Z,9.07
2019-05-19T08:35:33.445Z,7.83
2019-05-19T08:38:02.062Z,7.87
2019-05-19T08:40:30.578Z,7.70
2019-05-19T08:42:59.007Z,9.27
2019-05-19T08:45:27.521Z,7.00
2019-05-19T08:47:56.025Z,9.23
2019-05-19T08:50:24.483Z,8.60
2019-05-19T08:52:52.931Z,8.60
2019-05-19T08:55:21.470Z,8.63
2019-05-19T08:57:49.882Z,8.53
2019-05-19T09:00:18.379Z,8.00
2019-05-19T09:02:46.831Z,8.73
2019-05-19T09:05:15.319Z,7.57
2019-05-19T09:07:43.786Z,9.07
2019-05-19T09:10:12.634Z,7.97
2019-05-19T09:12:41.116Z,8.17
2019-05-19T09:15:09.979Z,8.13
2019-05-19T09:17:38.505Z,8.00
2019-05-19T09:20:07.065Z,6.97
2019-05-19T09:22:35.533Z,8.40
2019-05-19T09:25:08.467Z,7.37
2019-05-19T09:27:36.905Z,7.20
2019-05-19T09:30:10.426Z,7.37
2019-05-19T09:32:39.022Z,7.50
2019-05-19T09:35:07.679Z,7.50
2019-05-19T09:37:36.206Z,7.03
2019-05-19T09:40:07.526Z,7.37
2019-05-19T09:42:36.056Z,8.23
2019-05-19T09:45:07.396Z,8.00
2019-05-19T09:47:35.954Z,7.63
2019-05-19T09:50:05.758Z,7.33
2019-05-19T09:52:34.174Z,7.13
2019-05-19T09:55:02.778Z,6.60
2019-05-19T09:57:31.184Z,7.40
2019-05-19T09:59:59.671Z,6.13
2019-05-19T10:02:28.135Z,6.87
2019-05-19T10:04:56.575Z,5.90
2019-05-19T10:07:25.083Z,6.00
2019-05-19T10:09:58.622Z,5.37
2019-05-19T10:12:27.246Z,5.40
2019-05-19T10:14:55.755Z,5.97
2019-05-19T10:17:24.268Z,5.20
2019-05-19T10:19:52.793Z,6.10
2019-05-19T10:22:21.272Z,6.40
2019-05-19T10:24:59.646Z,4.67
2019-05-19T10:27:21.754Z,5.10
2019-05-19T10:29:50.458Z,5.00
2019-05-19T10:32:18.980Z,6.40
2019-05-19T10:34:47.561Z,5.30
2019-05-19T10:37:16.007Z,5.80
2019-05-19T10:39:44.508Z,5.20
2019-05-19T10:42:13.041Z,4.90
2019-05-19T10:44:41.475Z,5.20
2019-05-19T10:47:09.905Z,5.37
2019-05-19T10:49:38.331Z,4.50
2019-05-19T10:52:06.767Z,4.27
2019-05-19T10:54:35.188Z,4.17
2019-05-19T10:57:03.862Z,4.20
2019-05-19T10:59:32.304Z,4.37
2019-05-19T11:02:00.846Z,4.10
2019-05-19T11:04:29.412Z,4.80
2019-05-19T11:06:57.872Z,4.63
2019-05-19T11:09:26.317Z,4.83
2019-05-19T11:11:54.828Z,4.53
2019-05-19T11:14:23.271Z,3.97
2019-05-19T11:16:51.795Z,3.77
2019-05-19T11:19:20.284Z,4.30
2019-05-19T11:21:48.714Z,3.90
2019-05-19T11:24:17.139Z,5.00
2019-05-19T11:26:45.647Z,4.47
2019-05-19T11:29:14.193Z,5.30
2019-05-19T11:31:42.636Z,4.80
2019-05-19T11:34:11.055Z,4.60
2019-05-19T11:36:39.512Z,4.23
2019-05-19T11:39:08.583Z,6.13
2019-05-19T11:41:37.015Z,4.33
2019-05-19T11:44:05.594Z,4.33
2019-05-19T11:46:34.136Z,4.57
2019-05-19T11:49:02.709Z,4.20
2019-05-19T11:51:31.150Z,4.50
2019-05-19T11:53:59.584Z,4.33
2019-05-19T11:56:28.068Z,3.90
2019-05-19T11:58:56.522Z,3.40
2019-05-19T12:01:25.018Z,3.70
2019-05-19T12:03:55.447Z,3.80
2019-05-19T12:06:37.984Z,4.07
2019-05-19T12:08:53.955Z,3.73
2019-05-19T12:11:22.373Z,3.80
2019-05-19T12:13:50.818Z,3.57
2019-05-19T12:16:19.251Z,3.27
2019-05-19T12:18:47.799Z,4.23
2019-05-19T12:21:16.250Z,4.17
2019-05-19T12:23:44.729Z,3.90
2019-05-19T12:26:22.603Z,3.83
2019-05-19T12:28:43.326Z,3.40
2019-05-19T12:31:11.791Z,3.83
2019-05-19T12:33:51.464Z,3.70
2019-05-19T12:36:10.400Z,3.40
2019-05-19T12:38:38.851Z,4.07
2019-05-19T12:41:07.278Z,4.00
2019-05-19T12:43:35.724Z,3.03
2019-05-19T12:46:04.341Z,3.93
2019-05-19T12:48:33.031Z,3.67
2019-05-19T12:51:01.690Z,3.50
2019-05-19T12:53:31.792Z,4.00
2019-05-19T12:56:00.239Z,3.60
2019-05-19T12:58:28.655Z,3.40
2019-05-19T13:00:57.119Z,3.57
2019-05-19T13:03:25.558Z,3.87
2019-05-19T13:05:53.991Z,3.13
2019-05-19T13:08:22.419Z,3.53
2019-05-19T13:10:51.450Z,3.73
2019-05-19T13:13:19.882Z,4.40
2019-05-19T13:15:48.334Z,3.60
2019-05-19T13:18:16.769Z,3.97
2019-05-19T13:20:45.282Z,4.33
2019-05-19T13:23:13.702Z,3.97
2019-05-19T13:25:42.144Z,4.17
2019-05-19T13:28:10.558Z,3.90
2019-05-19T13:30:39.021Z,4.33
2019-05-19T13:33:07.507Z,4.60
2019-05-19T13:35:35.963Z,6.30
2019-05-19T13:38:04.464Z,6.00
2019-05-19T13:40:32.923Z,4.47
2019-05-19T13:43:01.498Z,5.17
2019-05-19T13:45:29.940Z,5.40
2019-05-19T13:47:58.382Z,4.83
2019-05-19T13:50:26.951Z,5.30
2019-05-19T13:52:55.415Z,5.53
2019-05-19T13:55:23.948Z,5.57
2019-05-19T13:57:52.508Z,5.40
2019-05-19T14:00:21.379Z,5.30
2019-05-19T14:02:49.821Z,5.33
2019-05-19T14:05:19.788Z,5.30
2019-05-19T14:07:48.307Z,5.50
2019-05-19T14:10:18.445Z,4.83
2019-05-19T14:12:47.036Z,4.40
2019-05-19T14:15:17.007Z,5.37
2019-05-19T14:17:45.460Z,5.10
2019-05-19T14:20:14.353Z,5.50
2019-05-19T14:22:42.801Z,5.13
2019-05-19T14:25:11.459Z,4.80
2019-05-19T14:27:39.987Z,4.77
2019-05-19T14:30:09.214Z,4.60
2019-05-19T14:32:37.763Z,5.40
2019-05-19T14:35:07.013Z,4.90
2019-05-19T14:37:35.522Z,5.17
2019-05-19T14:40:05.738Z,5.40
2019-05-19T14:42:44.782Z,5.20
2019-05-19T14:45:14.093Z,5.80
2019-05-19T14:47:42.617Z,6.40
2019-05-19T14:50:14.222Z,5.87
2019-05-19T14:52:42.642Z,4.70
2019-05-19T14:55:12.902Z,5.40
2019-05-19T14:57:44.945Z,6.20
2019-05-19T15:00:11.784Z,6.50
2019-05-19T15:02:40.198Z,6.10
2019-05-19T15:05:09.068Z,5.90
2019-05-19T15:07:37.763Z,5.90
2019-05-19T15:10:06.734Z,5.63
2019-05-19T15:12:35.280Z,6.17
2019-05-19T15:15:05.772Z,5.70
2019-05-19T15:17:34.190Z,6.00
2019-05-19T15:20:02.809Z,6.00
2019-05-19T15:22:31.242Z,5.40
2019-05-19T15:24:59.751Z,5.70
2019-05-19T15:27:28.178Z,5.70
2019-05-19T15:30:10.086Z,5.63
2019-05-19T15:32:26.784Z,5.57
2019-05-19T15:34:55.263Z,5.83
2019-05-19T15:37:23.700Z,6.30
2019-05-19T15:39:53.679Z,6.27
2019-05-19T15:42:22.122Z,5.30
2019-05-19T15:44:52.163Z,5.60
2019-05-19T15:47:20.662Z,6.53
2019-05-19T15:49:49.144Z,6.30
2019-05-19T15:52:17.575Z,6.30
2019-05-19T15:54:46.031Z,6.67
2019-05-19T15:57:14.499Z,5.77
2019-05-19T15:59:42.960Z,5.37
2019-05-19T16:02:11.379Z,6.17
2019-05-19T16:04:39.835Z,5.40
2019-05-19T16:07:08.330Z,4.53
2019-05-19T16:09:36.776Z,4.93
2019-05-19T16:12:05.287Z,4.40
2019-05-19T16:14:33.714Z,5.10
2019-05-19T16:17:02.296Z,4.97
2019-05-19T16:19:30.782Z,5.47
2019-05-19T16:21:59.278Z,4.20
2019-05-19T16:24:27.808Z,4.63
2019-05-19T16:26:56.246Z,4.47
2019-05-19T16:29:24.671Z,4.47
2019-05-19T16:31:54.665Z,4.60
2019-05-19T16:34:23.086Z,4.60
2019-05-19T16:36:53.066Z,4.90
2019-05-19T16:39:21.505Z,4.60
2019-05-19T16:41:49.951Z,4.20
2019-05-19T16:44:18.485Z,4.13
2019-05-19T16:46:46.915Z,4.80
2019-05-19T16:49:16.974Z,4.40
2019-05-19T16:51:45.494Z,4.90
2019-05-19T16:54:15.619Z,4.33
2019-05-19T16:56:44.112Z,4.80
2019-05-19T16:59:12.566Z,4.70
2019-05-19T17:01:42.809Z,5.13
2019-05-19T17:04:11.231Z,4.63
2019-05-19T17:06:39.684Z,4.50
2019-05-19T17:09:08.144Z,4.50
2019-05-19T17:11:36.567Z,4.17
2019-05-19T17:14:05.106Z,4.10
2019-05-19T17:16:33.534Z,4.50
2019-05-19T17:19:03.572Z,5.67
2019-05-19T17:21:32.044Z,5.70
2019-05-19T17:24:00.530Z,4.80
2019-05-19T17:26:29.191Z,4.33
2019-05-19T17:29:00.904Z,4.70
2019-05-19T17:31:27.928Z,5.23
2019-05-19T17:33:56.402Z,5.60
2019-05-19T17:36:27.354Z,9.73
2019-05-19T17:38:55.128Z,6.17
2019-05-19T17:41:23.557Z,7.10
2019-05-19T17:43:52.008Z,6.20
2019-05-19T17:46:20.462Z,5.60
2019-05-19T17:48:48.974Z,7.00
2019-05-19T17:51:17.450Z,6.30
2019-05-19T17:53:47.636Z,6.80
2019-05-19T17:56:16.635Z,7.17
2019-05-19T17:58:46.864Z,6.80
2019-05-19T18:01:15.302Z,7.00
2019-05-19T18:03:44.880Z,7.90
2019-05-19T18:06:13.364Z,7.43
2019-05-19T18:08:41.795Z,6.93
2019-05-19T18:11:11.051Z,6.93
2019-05-19T18:13:39.695Z,7.03
2019-05-19T18:16:10.191Z,6.00
2019-05-19T18:18:38.627Z,6.00
2019-05-19T18:21:07.074Z,6.20
2019-05-19T18:23:35.514Z,6.60
2019-05-19T18:26:07.055Z,5.97
2019-05-19T18:28:34.121Z,6.50
2019-05-19T18:31:02.603Z,5.40
2019-05-19T18:33:31.051Z,7.07
2019-05-19T18:35:59.509Z,6.20
2019-05-19T18:38:28.008Z,7.70
2019-05-19T18:40:56.463Z,5.93
2019-05-19T18:43:25.005Z,6.43
2019-05-19T18:45:53.518Z,7.33
2019-05-19T18:48:23.409Z,6.93
2019-05-19T18:50:52.090Z,6.47
2019-05-19T18:53:20.514Z,6.67
2019-05-19T18:55:49.011Z,6.50
2019-05-19T18:58:17.440Z,6.07
2019-05-19T19:00:45.921Z,6.07
2019-05-19T19:03:14.430Z,6.33
2019-05-19T19:05:42.977Z,6.83
2019-05-19T19:08:11.428Z,7.57
2019-05-19T19:10:39.873Z,6.47
2019-05-19T19:13:08.407Z,6.57
2019-05-19T19:15:36.837Z,6.50
2019-05-19T19:18:06.100Z,6.43
2019-05-19T19:20:35.251Z,6.10
2019-05-19T19:23:04.140Z,4.83
2019-05-19T19:25:32.592Z,4.80
2019-05-19T19:28:01.055Z,5.23
2019-05-19T19:30:29.474Z,5.03
2019-05-19T19:32:57.974Z,4.40
2019-05-19T19:35:26.460Z,4.50
2019-05-19T19:37:54.933Z,4.67
2019-05-19T19:40:28.484Z,4.30
2019-05-19T19:42:58.149Z,4.67
2019-05-19T19:45:26.594Z,4.03
2019-05-19T19:47:55.214Z,4.13
2019-05-19T19:50:23.798Z,4.23
2019-05-19T19:52:52.251Z,3.13
2019-05-19T19:55:20.670Z,3.40
2019-05-19T19:57:49.106Z,2.60
2019-05-19T20:00:23.799Z,3.10
2019-05-19T20:02:52.239Z,3.07
2019-05-19T20:05:20.679Z,3.57
2019-05-19T20:07:49.183Z,3.13
2019-05-19T20:10:19.424Z,3.37
2019-05-19T20:12:47.846Z,3.30
2019-05-19T20:15:16.393Z,2.77
2019-05-19T20:17:44.829Z,2.83
2019-05-19T20:20:13.512Z,3.13
2019-05-19T20:22:41.934Z,3.27
2019-05-19T20:25:10.628Z,3.53
2019-05-19T20:27:39.344Z,3.40
2019-05-19T20:30:08.019Z,2.80
2019-05-19T20:32:36.532Z,3.13
2019-05-19T20:35:05.734Z,3.10
2019-05-19T20:37:34.205Z,4.03
2019-05-19T20:40:02.814Z,3.17
2019-05-19T20:42:31.333Z,3.40
2019-05-19T20:44:59.770Z,3.23
2019-05-19T20:47:29.126Z,3.70
2019-05-19T20:49:57.579Z,3.50
2019-05-19T20:52:26.019Z,3.80
2019-05-19T20:54:54.459Z,3.13
2019-05-19T20:57:22.884Z,3.83
2019-05-19T20:59:51.389Z,4.13
2019-05-19T21:02:19.841Z,3.97
2019-05-19T21:04:48.309Z,3.70
2019-05-19T21:07:16.739Z,3.90
2019-05-19T21:09:46.724Z,3.80
2019-05-19T21:12:15.151Z,3.77
2019-05-19T21:14:43.579Z,4.40
2019-05-19T21:17:12.087Z,4.07
2019-05-19T21:19:40.525Z,3.90
2019-05-19T21:22:10.506Z,3.53
2019-05-19T21:24:38.963Z,3.60
2019-05-19T21:27:07.462Z,4.00
2019-05-19T21:29:35.907Z,4.60
2019-05-19T21:32:04.363Z,4.03
2019-05-19T21:34:34.531Z,4.07
2019-05-19T21:37:02.999Z,3.97
2019-05-19T21:39:31.694Z,3.37
2019-05-19T21:42:00.138Z,3.17
2019-05-19T21:44:28.571Z,3.57
2019-05-19T21:46:57.010Z,3.37
2019-05-19T21:49:25.458Z,3.73
2019-05-19T21:51:53.968Z,3.73
2019-05-19T21:54:23.934Z,3.80
2019-05-19T21:56:52.390Z,4.33
2019-05-19T21:59:20.828Z,3.90
2019-05-19T22:01:49.348Z,3.80
2019-05-19T22:04:17.771Z,4.20
2019-05-19T22:06:47.907Z,3.27
2019-05-19T22:09:16.351Z,4.00
2019-05-19T22:11:44.807Z,4.33
2019-05-19T22:14:13.251Z,3.80
2019-05-19T22:16:41.707Z,3.87
2019-05-19T22:19:10.195Z,3.90
2019-05-19T22:21:38.664Z,3.33
2019-05-19T22:24:07.179Z,4.30
2019-05-19T22:26:35.599Z,4.10
2019-05-19T22:29:04.190Z,4.17
2019-05-19T22:31:36.945Z,4.40
2019-05-19T22:34:02.883Z,4.03
2019-05-19T22:36:31.315Z,5.47
2019-05-19T22:38:59.758Z,5.30
2019-05-19T22:41:28.190Z,4.87
2019-05-19T22:43:58.438Z,5.50
2019-05-19T22:46:26.859Z,5.87
2019-05-19T22:48:55.325Z,6.90
2019-05-19T22:51:23.760Z,7.27
2019-05-19T22:53:52.208Z,7.60
2019-05-19T22:56:20.629Z,8.03
2019-05-19T22:58:49.084Z,9.40
2019-05-19T23:01:19.102Z,9.73
2019-05-19T23:03:47.632Z,8.37
2019-05-19T23:06:16.062Z,10.47
2019-05-19T23:08:44.518Z,8.60
2019-05-19T23:11:12.971Z,9.50
2019-05-19T23:13:42.948Z,8.00
2019-05-19T23:16:11.371Z,8.80
2019-05-19T23:18:39.813Z,8.00
2019-05-19T23:21:08.243Z,7.87
2019-05-19T23:23:36.779Z,7.80
2019-05-19T23:26:05.215Z,9.53
2019-05-19T23:28:33.651Z,9.73
2019-05-19T23:31:03.648Z,11.43
2019-05-19T23:33:32.083Z,11.20
2019-05-19T23:36:00.589Z,12.60
2019-05-19T23:38:29.015Z,12.17
2019-05-19T23:40:57.463Z,12.90
2019-05-19T23:43:26.137Z,10.40
2019-05-19T23:45:54.631Z,9.60
2019-05-19T23:48:23.050Z,9.27
2019-05-19T23:50:53.043Z,10.47
2019-05-19T23:53:21.467Z,16.10
2019-05-19T23:55:49.911Z,16.40
2019-05-19T23:58:18.418Z,16.77
